Airfield :
LOGIN :

Register | Disclaimer

   EN    FR    IT 

 










Legend :    VFR   Marginal VFR   IFR   Intensive IFR   Very Intensive IFR
Visi :
Ceiling :
>= 8 km
>= 3000ft
5 to 8 km
1000 to 3000 ft
1500m to 5 km
500 to 1000 ft
800 to 1500m
200 to 500 ft
< 800m
< 200 ft
Symbols :   Thunderstorms  Fog  Heavy snow  Heavy precipitations  Wind > 20 kt
SIGMETs :     Misc.  Thunderstorms  Icing  Turbulence  Mountain Waves  Volcanic Ashes







- Airport Elevation : 1487 ft
- IATA code : MUC


EDDM - München Franz Josef Strauss

CURRENT METAR :
  • 200520Z 27004KT 5000 BR OVC006 09/07 Q1021 TEMPO 4000

EXPIRED METARs :
  • 200450Z 28005KT 5000 BR OVC006 09/08 Q1020 TEMPO 4000
  • 200420Z 26004KT 6000 BKN006 09/08 Q1020 TEMPO 4000 BR
  • 200350Z 27005KT 240V300 8000 BKN005 08/07 Q1020 TEMPO 4000 BR BKN004
  • 200320Z 27005KT 8000 BKN005 08/07 Q1020 TEMPO 4000 BR BKN004
  • 200250Z 27005KT 7000 SCT006 BKN020 08/07 Q1020 BECMG BKN006

TAF TAF EDDM
Valid from the 20 at 06:00 until the 21 at 12:00 UTC


200500Z 2006/2112 29008KT 9999 BKN008
TEMPO 2006/2007 4000 BR
BECMG 2006/2008 BKN012
BECMG 2008/2010 FEW015 SCT025
BECMG 2016/2018 23003KT
PROB30
TEMPO 2103/2108 3000 BCFG
No reported NOTAMs for that airfield.



MET'MAP, your aeronautical weather chart ! - Copyright ORBIFLY December 2007 - Disclaimer

ORBIFLY MET'MAP TEAM :

Programming & Development : Alexandra Zaïnal
Concept & Development : Baudouin d'Aumeries
Co-Development & Prog : Marc-Olivier Méhu
Technical & hardware support : Manuel Goepfert

Contact : metmap@orbifly.com




SOURCES & CREDITS :

   NOAA